Time;durP1;ratioP1;P1;durP2;ratioP2;P2;SDS_P1;SDS_P2;PMS_P1;PMS_P2;Temp;Humidity;BMP_temperature;BMP_pressure;BME280_temperature;BME280_humidity;BME280_pressure;Samples;Min_cycle;Max_cycle;Signal;HPM_P1;HPM_P2
2021/09/25 00:01:32;;;;;;;17.13;8.45;;;;;;;;;;6150082;23;20514;-90
2021/09/25 00:04:37;;;;;;;14.75;8.60;;;;;;;;;;6150601;23;20172;-91
2021/09/25 00:07:43;;;;;;;12.63;8.23;;;;;;;;;;6149360;23;20236;-92
2021/09/25 00:10:49;;;;;;;17.92;8.73;;;;;;;;;;6148804;23;20288;-91
2021/09/25 00:13:54;;;;;;;16.88;9.45;;;;;;;;;;6150599;23;20195;-91
2021/09/25 00:17:00;;;;;;;14.88;8.38;;;;;;;;;;6148043;23;20172;-92
2021/09/25 00:20:06;;;;;;;15.60;8.52;;;;;;;;;;6165945;23;20168;-90
2021/09/25 00:23:11;;;;;;;17.20;8.77;;;;;;;;;;6148707;23;20247;-91
2021/09/25 00:26:17;;;;;;;16.05;9.40;;;;;;;;;;6148484;23;20212;-92
2021/09/25 00:29:22;;;;;;;19.75;9.65;;;;;;;;;;6147715;23;20172;-92
2021/09/25 00:32:27;;;;;;;17.67;9.52;;;;;;;;;;6148249;23;20228;-91
2021/09/25 00:35:32;;;;;;;18.65;9.32;;;;;;;;;;6169332;23;20172;-90
2021/09/25 00:38:37;;;;;;;17.50;9.32;;;;;;;;;;6150425;23;20616;-89
2021/09/25 00:41:43;;;;;;;19.00;9.63;;;;;;;;;;6149423;23;20220;-91
2021/09/25 00:44:48;;;;;;;16.02;9.52;;;;;;;;;;6148518;23;20631;-92
2021/09/25 00:47:53;;;;;;;18.60;9.98;;;;;;;;;;6164961;23;20240;-90
2021/09/25 00:50:58;;;;;;;18.55;9.68;;;;;;;;;;6150176;23;20196;-90
2021/09/25 00:54:04;;;;;;;17.92;9.63;;;;;;;;;;6149418;23;20193;-91
2021/09/25 00:57:10;;;;;;;21.30;10.38;;;;;;;;;;6149375;23;20716;-90
2021/09/25 01:00:16;;;;;;;20.30;9.52;;;;;;;;;;6166577;23;20176;-92
2021/09/25 01:03:21;;;;;;;18.23;10.43;;;;;;;;;;6147799;23;20511;-90
2021/09/25 01:06:26;;;;;;;19.95;10.73;;;;;;;;;;6149479;23;20628;-91
2021/09/25 01:09:31;;;;;;;18.35;9.98;;;;;;;;;;6148599;23;20240;-91
2021/09/25 01:12:37;;;;;;;18.10;10.10;;;;;;;;;;6147152;23;20212;-91
2021/09/25 01:15:44;;;;;;;20.15;10.02;;;;;;;;;;6165476;23;20208;-91
2021/09/25 01:18:49;;;;;;;19.02;10.30;;;;;;;;;;6166288;23;20172;-91
2021/09/25 01:21:56;;;;;;;19.00;10.25;;;;;;;;;;6165053;23;20149;-93
2021/09/25 01:25:03;;;;;;;21.02;10.63;;;;;;;;;;6165719;23;20240;-91
2021/09/25 01:28:08;;;;;;;21.67;10.82;;;;;;;;;;6165123;23;20176;-91
2021/09/25 01:31:14;;;;;;;20.48;10.90;;;;;;;;;;6163834;23;20272;-91
2021/09/25 01:34:19;;;;;;;19.10;10.50;;;;;;;;;;6147074;23;20278;-92
2021/09/25 01:37:26;;;;;;;17.70;10.40;;;;;;;;;;6165721;23;20160;-91
2021/09/25 01:40:31;;;;;;;19.45;9.80;;;;;;;;;;6165298;23;20169;-92
2021/09/25 01:43:36;;;;;;;17.67;9.73;;;;;;;;;;6149241;23;20168;-91
2021/09/25 01:46:41;;;;;;;16.40;9.90;;;;;;;;;;6148545;23;20223;-90
2021/09/25 01:49:46;;;;;;;17.50;9.55;;;;;;;;;;6147249;23;20172;-91
2021/09/25 01:52:52;;;;;;;18.83;9.93;;;;;;;;;;6148901;23;20253;-89
2021/09/25 01:55:57;;;;;;;18.40;10.25;;;;;;;;;;6149728;23;20180;-91
2021/09/25 01:59:02;;;;;;;18.95;10.00;;;;;;;;;;6166752;23;20169;-91
2021/09/25 02:02:07;;;;;;;17.23;9.85;;;;;;;;;;6166220;23;20200;-89
2021/09/25 02:05:15;;;;;;;18.63;9.00;;;;;;;;;;6146768;23;20177;-91
2021/09/25 02:08:21;;;;;;;19.38;9.30;;;;;;;;;;6147466;23;20169;-90
2021/09/25 02:11:29;;;;;;;17.45;8.95;;;;;;;;;;6148889;23;20234;-92
2021/09/25 02:14:34;;;;;;;15.07;8.93;;;;;;;;;;6148655;23;20267;-91
2021/09/25 02:17:39;;;;;;;22.73;10.63;;;;;;;;;;6165461;23;20165;-91
2021/09/25 02:20:44;;;;;;;21.77;10.63;;;;;;;;;;6165803;23;20292;-90
2021/09/25 02:23:50;;;;;;;18.05;10.23;;;;;;;;;;6167436;23;20164;-90
2021/09/25 02:26:56;;;;;;;18.52;10.48;;;;;;;;;;6152936;23;20218;-89
2021/09/25 02:30:01;;;;;;;21.00;10.20;;;;;;;;;;6168756;23;20208;-89
2021/09/25 02:33:06;;;;;;;65.20;11.25;;;;;;;;;;6168339;23;20191;-92
2021/09/25 02:36:11;;;;;;;21.02;10.02;;;;;;;;;;6168764;23;20609;-92
2021/09/25 02:39:17;;;;;;;34.70;10.15;;;;;;;;;;6168414;23;20193;-90
2021/09/25 02:42:23;;;;;;;21.83;10.07;;;;;;;;;;6169648;23;20167;-92
2021/09/25 02:45:28;;;;;;;21.23;9.85;;;;;;;;;;6152947;23;20208;-92
2021/09/25 02:48:33;;;;;;;19.77;10.35;;;;;;;;;;6152198;23;20244;-90
2021/09/25 02:51:38;;;;;;;20.70;9.68;;;;;;;;;;6168390;23;20245;-90
2021/09/25 02:54:45;;;;;;;25.70;10.75;;;;;;;;;;6168943;23;20197;-91
2021/09/25 02:57:50;;;;;;;21.70;10.45;;;;;;;;;;6167042;23;20172;-91
2021/09/25 03:00:56;;;;;;;65.90;12.55;;;;;;;;;;6169035;23;20247;-91
2021/09/25 03:04:01;;;;;;;25.20;10.75;;;;;;;;;;6153286;23;20168;-90
2021/09/25 03:07:07;;;;;;;33.22;11.40;;;;;;;;;;6169740;23;20172;-91
2021/09/25 03:10:14;;;;;;;32.88;11.15;;;;;;;;;;6151124;23;20160;-91
2021/09/25 03:13:19;;;;;;;21.33;10.48;;;;;;;;;;6169805;23;20201;-91
2021/09/25 03:16:24;;;;;;;27.10;10.73;;;;;;;;;;6169406;23;20217;-91
2021/09/25 03:19:29;;;;;;;29.90;10.90;;;;;;;;;;6152018;23;20244;-89
2021/09/25 03:22:34;;;;;;;18.00;9.50;;;;;;;;;;6168909;23;20184;-91
2021/09/25 03:25:44;;;;;;;35.97;11.00;;;;;;;;;;6151474;23;20180;-90
2021/09/25 03:28:49;;;;;;;28.15;10.38;;;;;;;;;;6151271;23;20164;-89
2021/09/25 03:31:54;;;;;;;30.70;10.55;;;;;;;;;;6169277;23;20172;-90
2021/09/25 03:34:59;;;;;;;26.90;10.98;;;;;;;;;;6151968;23;20224;-91
2021/09/25 03:38:04;;;;;;;99.50;11.75;;;;;;;;;;6168925;23;20172;-90
2021/09/25 03:41:10;;;;;;;60.17;10.88;;;;;;;;;;6150882;23;20289;-90
2021/09/25 03:44:15;;;;;;;36.08;10.77;;;;;;;;;;6168293;23;20157;-92
2021/09/25 03:47:20;;;;;;;36.95;11.00;;;;;;;;;;6169240;23;20304;-89
2021/09/25 03:50:26;;;;;;;26.60;9.75;;;;;;;;;;6168850;23;20180;-91
2021/09/25 03:53:31;;;;;;;34.85;10.38;;;;;;;;;;6153556;23;20196;-91
2021/09/25 03:56:37;;;;;;;34.20;9.68;;;;;;;;;;6152483;23;20181;-92
2021/09/25 03:59:42;;;;;;;54.58;11.30;;;;;;;;;;6151281;23;20212;-90
2021/09/25 04:07:06;;;;;;;32.63;10.40;;;;;;;;;;6170179;23;20141;-90
2021/09/25 04:10:12;;;;;;;67.38;10.95;;;;;;;;;;6167922;23;20248;-90
2021/09/25 04:13:19;;;;;;;32.55;10.75;;;;;;;;;;6167183;23;20196;-90
2021/09/25 04:16:26;;;;;;;40.30;12.20;;;;;;;;;;6168887;23;20176;-91
2021/09/25 04:19:31;;;;;;;111.90;12.15;;;;;;;;;;6150098;23;20164;-91
2021/09/25 04:22:36;;;;;;;29.25;10.90;;;;;;;;;;6152051;23;20151;-91
2021/09/25 04:25:40;;;;;;;36.20;10.05;;;;;;;;;;6152702;23;20160;-91
2021/09/25 04:28:47;;;;;;;20.45;9.85;;;;;;;;;;6169919;23;20164;-90
2021/09/25 04:31:52;;;;;;;25.10;8.63;;;;;;;;;;6153554;23;20168;-89
2021/09/25 04:34:57;;;;;;;17.30;9.63;;;;;;;;;;6153484;23;20196;-91
2021/09/25 04:38:06;;;;;;;20.63;9.23;;;;;;;;;;6154699;23;20196;-89
2021/09/25 04:41:11;;;;;;;22.42;9.45;;;;;;;;;;6155163;23;20216;-91
2021/09/25 04:44:17;;;;;;;17.70;8.25;;;;;;;;;;6153560;23;20502;-89
2021/09/25 04:47:22;;;;;;;40.33;8.95;;;;;;;;;;6154482;23;20224;-90
2021/09/25 04:50:29;;;;;;;40.85;9.20;;;;;;;;;;6170650;23;20165;-90
2021/09/25 04:53:34;;;;;;;30.23;9.25;;;;;;;;;;6153138;23;20220;-90
2021/09/25 04:56:39;;;;;;;22.55;9.25;;;;;;;;;;6154608;23;20160;-91
2021/09/25 04:59:45;;;;;;;64.63;9.77;;;;;;;;;;6170196;23;20180;-91
2021/09/25 05:02:50;;;;;;;25.88;8.88;;;;;;;;;;6152304;23;20160;-90
2021/09/25 05:05:55;;;;;;;36.25;9.43;;;;;;;;;;6169849;23;20176;-92
2021/09/25 05:09:00;;;;;;;49.47;9.50;;;;;;;;;;6170701;23;20157;-90
2021/09/25 05:12:05;;;;;;;48.22;9.02;;;;;;;;;;6170173;23;20217;-89
2021/09/25 05:15:12;;;;;;;36.10;8.93;;;;;;;;;;6153364;23;20269;-91
2021/09/25 05:18:17;;;;;;;34.05;9.25;;;;;;;;;;6153064;23;20296;-91
2021/09/25 05:21:24;;;;;;;59.30;10.05;;;;;;;;;;6153106;23;20164;-89
2021/09/25 05:24:29;;;;;;;31.48;10.13;;;;;;;;;;6170601;23;20183;-91
2021/09/25 05:27:34;;;;;;;46.08;10.38;;;;;;;;;;6170346;23;20204;-89
2021/09/25 05:30:41;;;;;;;85.32;10.77;;;;;;;;;;6154357;23;20200;-90
2021/09/25 05:33:45;;;;;;;92.63;11.68;;;;;;;;;;6154222;23;20651;-90
2021/09/25 05:36:50;;;;;;;114.82;11.50;;;;;;;;;;6153710;23;20213;-89
2021/09/25 05:39:55;;;;;;;47.78;10.38;;;;;;;;;;6171028;23;20180;-91
2021/09/25 05:43:00;;;;;;;100.90;11.02;;;;;;;;;;6171127;23;20147;-90
2021/09/25 05:46:07;;;;;;;39.60;9.77;;;;;;;;;;6170022;23;20176;-89
2021/09/25 05:49:12;;;;;;;87.35;9.15;;;;;;;;;;6154592;23;20165;-91
2021/09/25 05:52:17;;;;;;;40.50;10.15;;;;;;;;;;6152584;23;20185;-90
2021/09/25 05:55:22;;;;;;;31.38;9.73;;;;;;;;;;6170151;23;20197;-90
2021/09/25 05:58:28;;;;;;;66.88;9.55;;;;;;;;;;6152012;23;20181;-90
2021/09/25 06:01:34;;;;;;;17.30;9.18;;;;;;;;;;6153071;23;20192;-91
2021/09/25 06:04:39;;;;;;;25.75;8.75;;;;;;;;;;6153258;23;20168;-90
2021/09/25 06:07:44;;;;;;;16.35;8.23;;;;;;;;;;6151973;23;20181;-90
2021/09/25 06:10:49;;;;;;;25.50;9.32;;;;;;;;;;6154542;23;20172;-89
2021/09/25 06:13:54;;;;;;;22.08;9.32;;;;;;;;;;6170500;23;20220;-91
2021/09/25 06:17:01;;;;;;;66.78;9.52;;;;;;;;;;6153224;23;20205;-91
2021/09/25 06:20:07;;;;;;;21.67;8.45;;;;;;;;;;6153219;23;20491;-91
2021/09/25 06:23:12;;;;;;;23.13;9.63;;;;;;;;;;6153099;23;20494;-93
2021/09/25 06:26:17;;;;;;;18.00;9.13;;;;;;;;;;6153861;23;20615;-91
2021/09/25 06:29:22;;;;;;;29.92;9.75;;;;;;;;;;6150384;23;20169;-90
2021/09/25 06:32:28;;;;;;;22.27;9.65;;;;;;;;;;6152414;23;20156;-92
2021/09/25 06:35:39;;;;;;;37.45;10.35;;;;;;;;;;6153812;23;20188;-92
2021/09/25 06:38:44;;;;;;;24.70;10.02;;;;;;;;;;6154737;23;20240;-90
2021/09/25 06:41:49;;;;;;;19.38;9.75;;;;;;;;;;6155521;23;20266;-89
2021/09/25 06:44:55;;;;;;;35.53;10.00;;;;;;;;;;6152294;23;20165;-88
2021/09/25 06:48:01;;;;;;;24.25;9.52;;;;;;;;;;6171459;23;20227;-91
2021/09/25 06:51:07;;;;;;;23.13;10.30;;;;;;;;;;6151251;23;20232;-90
2021/09/25 06:54:12;;;;;;;21.67;9.80;;;;;;;;;;6168010;23;20192;-91
2021/09/25 06:57:17;;;;;;;30.88;9.60;;;;;;;;;;6151589;23;20228;-90
2021/09/25 07:00:22;;;;;;;13.23;8.70;;;;;;;;;;6151877;23;20181;-91
2021/09/25 07:03:28;;;;;;;27.65;8.32;;;;;;;;;;6169800;23;20168;-90
2021/09/25 07:06:34;;;;;;;22.70;8.60;;;;;;;;;;6154099;23;20191;-90
2021/09/25 07:09:41;;;;;;;28.95;8.73;;;;;;;;;;6152819;23;20612;-89
2021/09/25 07:12:49;;;;;;;11.43;7.43;;;;;;;;;;6151918;23;20247;-90
2021/09/25 07:15:54;;;;;;;14.02;8.68;;;;;;;;;;6154678;23;20224;-92
2021/09/25 07:19:01;;;;;;;20.02;8.80;;;;;;;;;;6153640;23;20176;-88
2021/09/25 07:22:08;;;;;;;14.93;8.88;;;;;;;;;;6153643;23;20172;-91
2021/09/25 07:25:14;;;;;;;16.23;9.25;;;;;;;;;;6152757;23;20173;-90
2021/09/25 07:28:19;;;;;;;17.33;8.57;;;;;;;;;;6153166;23;20465;-90
2021/09/25 07:31:24;;;;;;;18.45;8.32;;;;;;;;;;6152188;23;20620;-91
2021/09/25 07:34:31;;;;;;;13.73;8.35;;;;;;;;;;6150524;23;20196;-89
2021/09/25 07:37:36;;;;;;;16.90;8.50;;;;;;;;;;6152923;23;20231;-90
2021/09/25 07:40:41;;;;;;;23.35;9.07;;;;;;;;;;6153031;23;20156;-91
2021/09/25 07:43:47;;;;;;;16.38;8.55;;;;;;;;;;6151772;23;20168;-90
2021/09/25 07:46:52;;;;;;;15.63;8.38;;;;;;;;;;6149833;23;20296;-90
2021/09/25 07:49:58;;;;;;;15.27;8.20;;;;;;;;;;6150470;23;20267;-91
2021/09/25 07:53:04;;;;;;;21.05;9.70;;;;;;;;;;6150862;23;20224;-91
2021/09/25 07:56:10;;;;;;;14.75;8.88;;;;;;;;;;6151270;23;20215;-90
2021/09/25 07:59:15;;;;;;;19.33;8.93;;;;;;;;;;6167635;23;20224;-90
2021/09/25 08:02:20;;;;;;;17.88;8.75;;;;;;;;;;6151544;23;20224;-92
2021/09/25 08:05:27;;;;;;;29.55;8.82;;;;;;;;;;6151822;23;20167;-92
2021/09/25 08:08:33;;;;;;;11.95;8.07;;;;;;;;;;6154781;23;20168;-92
2021/09/25 08:11:38;;;;;;;12.10;7.78;;;;;;;;;;6151690;23;20176;-91
2021/09/25 08:14:43;;;;;;;11.35;7.30;;;;;;;;;;6152473;23;20264;-88
2021/09/25 08:17:48;;;;;;;11.80;7.57;;;;;;;;;;6152757;23;20165;-90
2021/09/25 08:20:56;;;;;;;13.93;8.05;;;;;;;;;;6151281;23;20177;-90
2021/09/25 08:24:01;;;;;;;12.93;8.07;;;;;;;;;;6167014;23;20176;-91
2021/09/25 08:27:06;;;;;;;14.38;8.98;;;;;;;;;;6149960;23;20172;-90
2021/09/25 08:30:12;;;;;;;12.18;7.75;;;;;;;;;;6152189;23;20176;-91
2021/09/25 08:33:17;;;;;;;13.82;8.05;;;;;;;;;;6151151;23;20180;-92
2021/09/25 08:36:24;;;;;;;14.35;8.13;;;;;;;;;;6152219;23;20177;-90
2021/09/25 08:39:29;;;;;;;11.65;7.68;;;;;;;;;;6151884;23;20280;-92
2021/09/25 08:42:34;;;;;;;13.15;8.35;;;;;;;;;;6151348;23;20168;-92
2021/09/25 08:45:39;;;;;;;14.93;9.18;;;;;;;;;;6150768;23;20172;-90
2021/09/25 08:48:44;;;;;;;15.80;8.38;;;;;;;;;;6168747;23;20168;-91
2021/09/25 08:51:58;;;;;;;19.10;9.00;;;;;;;;;;6153603;23;20660;-90
2021/09/25 08:55:04;;;;;;;21.65;9.30;;;;;;;;;;6150624;23;20209;-90
2021/09/25 08:58:12;;;;;;;14.93;8.98;;;;;;;;;;6154174;23;20217;-89
2021/09/25 09:01:19;;;;;;;17.27;9.73;;;;;;;;;;6151522;23;20211;-90
2021/09/25 09:04:40;;;;;;;13.68;8.73;;;;;;;;;;6153460;23;20165;-91
2021/09/25 09:08:02;;;;;;;18.10;9.55;;;;;;;;;;6154322;23;20192;-91
2021/09/25 09:11:07;;;;;;;16.70;9.32;;;;;;;;;;6151853;23;20168;-91
2021/09/25 09:14:14;;;;;;;14.80;9.00;;;;;;;;;;6152122;23;20199;-89
2021/09/25 09:17:24;;;;;;;15.63;8.93;;;;;;;;;;6152965;23;20228;-93
2021/09/25 09:20:29;;;;;;;12.18;8.25;;;;;;;;;;6156808;23;20192;-91
2021/09/25 09:23:37;;;;;;;15.43;9.43;;;;;;;;;;6155214;23;20200;-93
2021/09/25 09:26:43;;;;;;;14.50;8.50;;;;;;;;;;6156529;23;20168;-92
2021/09/25 09:29:48;;;;;;;13.23;8.18;;;;;;;;;;6154570;23;20209;-91
2021/09/25 09:32:54;;;;;;;11.98;8.50;;;;;;;;;;6155675;23;20172;-92
2021/09/25 09:36:12;;;;;;;12.70;7.57;;;;;;;;;;6158935;23;20208;-91
2021/09/25 09:39:19;;;;;;;11.57;7.75;;;;;;;;;;6155725;23;20204;-92
2021/09/25 09:42:26;;;;;;;13.18;7.80;;;;;;;;;;6170294;23;20156;-92
2021/09/25 09:45:36;;;;;;;9.57;7.30;;;;;;;;;;6154472;23;20169;-91
2021/09/25 09:48:41;;;;;;;13.65;7.28;;;;;;;;;;6154611;23;20179;-93
2021/09/25 09:51:48;;;;;;;14.13;7.57;;;;;;;;;;6150764;23;20754;-92
2021/09/25 09:54:54;;;;;;;9.50;7.10;;;;;;;;;;6150745;23;20195;-93
2021/09/25 09:58:04;;;;;;;10.00;6.05;;;;;;;;;;6151577;23;20175;-91
2021/09/25 10:01:09;;;;;;;12.70;6.45;;;;;;;;;;6155275;23;20196;-92
2021/09/25 10:04:15;;;;;;;9.20;6.22;;;;;;;;;;6153375;23;20167;-92
2021/09/25 10:07:20;;;;;;;8.10;5.97;;;;;;;;;;6151667;23;20164;-92
2021/09/25 10:10:27;;;;;;;10.10;5.78;;;;;;;;;;6153299;23;20178;-93
2021/09/25 10:13:34;;;;;;;7.63;5.88;;;;;;;;;;6151873;23;20243;-92
2021/09/25 10:16:41;;;;;;;9.90;5.78;;;;;;;;;;6152592;23;20211;-95
2021/09/25 10:19:48;;;;;;;10.27;6.55;;;;;;;;;;6154286;23;20176;-93
2021/09/25 10:22:54;;;;;;;9.15;5.72;;;;;;;;;;6153468;23;20287;-92
2021/09/25 10:26:01;;;;;;;9.35;6.10;;;;;;;;;;6154782;23;20502;-92
2021/09/25 10:29:07;;;;;;;8.93;5.35;;;;;;;;;;6153311;23;20228;-93
2021/09/25 10:32:20;;;;;;;7.43;5.63;;;;;;;;;;6152484;23;20172;-92
2021/09/25 10:35:26;;;;;;;7.82;5.68;;;;;;;;;;6153245;23;20195;-92
2021/09/25 10:38:35;;;;;;;8.52;5.97;;;;;;;;;;6152278;23;20167;-92
2021/09/25 10:41:45;;;;;;;10.13;5.60;;;;;;;;;;6152599;23;20180;-92
2021/09/25 10:44:53;;;;;;;9.95;7.22;;;;;;;;;;6150366;23;20148;-93
2021/09/25 10:48:10;;;;;;;7.78;6.07;;;;;;;;;;6151673;23;20534;-92
2021/09/25 10:51:17;;;;;;;9.40;5.55;;;;;;;;;;6154103;23;20172;-92
2021/09/25 10:54:22;;;;;;;9.07;6.30;;;;;;;;;;6154817;23;20167;-92
2021/09/25 11:01:26;;;;;;;9.10;5.53;;;;;;;;;;6152992;23;20262;-92
2021/09/25 11:04:34;;;;;;;9.00;5.60;;;;;;;;;;6154576;23;20291;-92
2021/09/25 11:07:41;;;;;;;7.00;5.85;;;;;;;;;;6152556;23;20171;-89
2021/09/25 11:11:02;;;;;;;8.32;5.85;;;;;;;;;;6151735;23;20390;-92
2021/09/25 11:14:23;;;;;;;7.70;5.88;;;;;;;;;;6153750;23;20168;-91
2021/09/25 11:17:30;;;;;;;10.10;5.65;;;;;;;;;;6152078;23;20591;-92
2021/09/25 11:20:35;;;;;;;7.63;5.65;;;;;;;;;;6151726;23;20175;-91
2021/09/25 11:23:44;;;;;;;9.57;6.10;;;;;;;;;;6153795;23;20171;-93
2021/09/25 11:26:50;;;;;;;8.20;5.95;;;;;;;;;;6155424;23;20163;-92
2021/09/25 11:30:00;;;;;;;10.80;6.60;;;;;;;;;;6156424;23;20240;-92
2021/09/25 11:33:08;;;;;;;11.38;7.03;;;;;;;;;;6154066;23;20163;-94
2021/09/25 11:36:13;;;;;;;8.55;5.90;;;;;;;;;;6153835;23;20322;-92
2021/09/25 11:39:24;;;;;;;8.30;5.90;;;;;;;;;;6155691;23;20207;-93
2021/09/25 11:42:31;;;;;;;11.98;6.45;;;;;;;;;;6158602;23;20164;-93
2021/09/25 11:45:46;;;;;;;9.38;5.95;;;;;;;;;;6150838;23;20220;-93
2021/09/25 11:48:57;;;;;;;9.98;6.57;;;;;;;;;;6152556;23;20167;-93
2021/09/25 11:52:02;;;;;;;10.07;6.00;;;;;;;;;;6152091;23;20176;-90
2021/09/25 11:55:10;;;;;;;8.15;5.50;;;;;;;;;;6151856;23;20168;-90
2021/09/25 11:58:16;;;;;;;9.40;6.38;;;;;;;;;;6151264;23;20297;-89
2021/09/25 12:01:25;;;;;;;11.15;5.25;;;;;;;;;;6151517;23;20175;-91
2021/09/25 12:04:49;;;;;;;12.02;5.05;;;;;;;;;;6151271;23;20548;-90
2021/09/25 12:07:54;;;;;;;7.88;5.45;;;;;;;;;;6153030;23;20160;-92
2021/09/25 12:11:04;;;;;;;8.13;5.22;;;;;;;;;;6152093;23;20172;-92
2021/09/25 12:14:09;;;;;;;11.07;5.18;;;;;;;;;;6151803;23;20144;-92
2021/09/25 12:17:22;;;;;;;8.90;5.13;;;;;;;;;;6153762;23;20584;-91
2021/09/25 12:20:32;;;;;;;9.88;5.65;;;;;;;;;;6161698;23;20221;-90
2021/09/25 12:23:51;;;;;;;9.18;5.05;;;;;;;;;;6152378;23;20168;-92
2021/09/25 12:26:57;;;;;;;15.30;5.65;;;;;;;;;;6152598;23;20176;-93
2021/09/25 12:30:07;;;;;;;8.55;4.93;;;;;;;;;;6151898;23;20208;-92
2021/09/25 12:33:12;;;;;;;6.43;4.47;;;;;;;;;;6149609;23;20164;-92
2021/09/25 12:36:19;;;;;;;8.55;4.53;;;;;;;;;;6151875;23;20534;-92
2021/09/25 12:39:25;;;;;;;8.52;5.50;;;;;;;;;;6151560;23;20546;-91
2021/09/25 12:42:31;;;;;;;13.93;4.57;;;;;;;;;;6149312;23;20261;-93
2021/09/25 12:45:36;;;;;;;8.32;5.10;;;;;;;;;;6152997;23;20171;-91
2021/09/25 12:49:02;;;;;;;11.13;5.63;;;;;;;;;;6152922;23;20196;-91
2021/09/25 12:52:14;;;;;;;7.25;4.63;;;;;;;;;;6151704;23;20165;-90
2021/09/25 12:55:20;;;;;;;7.85;5.28;;;;;;;;;;6151924;23;20168;-92
2021/09/25 12:58:29;;;;;;;6.95;4.75;;;;;;;;;;6151940;23;20172;-92
2021/09/25 13:01:34;;;;;;;9.73;5.50;;;;;;;;;;6154844;23;20251;-92
2021/09/25 13:04:43;;;;;;;12.13;5.18;;;;;;;;;;6155754;23;20224;-92
2021/09/25 13:07:50;;;;;;;8.20;4.97;;;;;;;;;;6155497;23;20164;-92
2021/09/25 13:10:58;;;;;;;6.22;3.90;;;;;;;;;;6153139;23;20171;-92
2021/09/25 13:14:07;;;;;;;11.63;7.45;;;;;;;;;;6154856;23;20259;-91
2021/09/25 13:17:12;;;;;;;5.68;4.05;;;;;;;;;;6152338;23;20240;-92
2021/09/25 13:23:39;;;;;;;4.65;3.75;;;;;;;;;;6153963;23;20176;-92
2021/09/25 13:26:44;;;;;;;7.28;3.88;;;;;;;;;;6153221;23;20207;-92
2021/09/25 13:29:52;;;;;;;6.70;3.90;;;;;;;;;;6152878;23;20167;-92
2021/09/25 13:33:10;;;;;;;5.78;3.92;;;;;;;;;;6156822;23;20163;-91
2021/09/25 13:39:36;;;;;;;6.25;4.32;;;;;;;;;;6154053;23;20183;-92
2021/09/25 13:42:41;;;;;;;5.50;3.50;;;;;;;;;;6151925;23;20167;-90
2021/09/25 13:45:46;;;;;;;6.25;4.38;;;;;;;;;;6153996;23;20204;-91
2021/09/25 13:48:52;;;;;;;11.55;4.22;;;;;;;;;;6152608;23;20176;-94
2021/09/25 13:55:18;;;;;;;6.80;3.90;;;;;;;;;;6153940;23;20164;-93
2021/09/25 13:58:23;;;;;;;4.90;3.95;;;;;;;;;;6153971;23;20164;-92
2021/09/25 14:01:28;;;;;;;4.40;3.67;;;;;;;;;;6153472;23;20230;-92
2021/09/25 14:04:33;;;;;;;5.68;3.63;;;;;;;;;;6155061;23;20682;-92
2021/09/25 14:07:38;;;;;;;8.82;4.05;;;;;;;;;;6152513;23;20175;-92
2021/09/25 14:10:45;;;;;;;4.72;3.88;;;;;;;;;;6152683;23;20256;-91
2021/09/25 14:13:51;;;;;;;6.53;4.00;;;;;;;;;;6151995;23;20174;-92
2021/09/25 14:16:56;;;;;;;5.72;4.20;;;;;;;;;;6153270;23;20195;-91
2021/09/25 14:20:03;;;;;;;8.05;4.60;;;;;;;;;;6172110;23;20172;-94
2021/09/25 14:23:10;;;;;;;6.03;4.13;;;;;;;;;;6155289;23;20619;-92
2021/09/25 14:26:16;;;;;;;7.70;4.60;;;;;;;;;;6156825;23;20280;-92
2021/09/25 14:29:25;;;;;;;6.05;4.10;;;;;;;;;;6156267;23;20176;-92
2021/09/25 14:32:31;;;;;;;8.35;4.68;;;;;;;;;;6155509;23;20176;-93
2021/09/25 14:35:36;;;;;;;6.22;4.35;;;;;;;;;;6152745;23;20502;-92
2021/09/25 14:38:41;;;;;;;4.75;3.67;;;;;;;;;;6153359;23;20510;-92
2021/09/25 14:41:48;;;;;;;6.13;3.95;;;;;;;;;;6169283;23;20164;-90
2021/09/25 14:44:54;;;;;;;5.15;4.10;;;;;;;;;;6153661;23;20159;-92
2021/09/25 14:48:00;;;;;;;5.03;3.67;;;;;;;;;;6153076;23;20249;-93
2021/09/25 14:51:05;;;;;;;5.70;3.65;;;;;;;;;;6155286;23;20264;-91
2021/09/25 14:54:12;;;;;;;5.88;3.50;;;;;;;;;;6155700;23;20204;-92
2021/09/25 14:57:19;;;;;;;4.18;3.67;;;;;;;;;;6152730;23;20192;-90
2021/09/25 15:00:24;;;;;;;6.82;4.55;;;;;;;;;;6154299;23;20180;-89
2021/09/25 15:03:29;;;;;;;11.95;4.32;;;;;;;;;;6154955;23;20229;-92
2021/09/25 15:06:34;;;;;;;7.25;4.50;;;;;;;;;;6170928;23;20615;-91
2021/09/25 15:09:40;;;;;;;5.15;3.63;;;;;;;;;;6153460;23;20698;-93
2021/09/25 15:12:47;;;;;;;8.60;3.90;;;;;;;;;;6153696;23;20167;-91
2021/09/25 15:15:53;;;;;;;9.75;4.00;;;;;;;;;;6154590;23;20172;-92
2021/09/25 15:18:59;;;;;;;7.03;4.13;;;;;;;;;;6155576;23;20152;-94
2021/09/25 15:22:04;;;;;;;8.25;4.00;;;;;;;;;;6154316;23;20188;-91
2021/09/25 15:25:11;;;;;;;8.05;4.68;;;;;;;;;;6154045;23;20180;-92
2021/09/25 15:28:18;;;;;;;6.22;4.40;;;;;;;;;;6155868;23;20187;-92
2021/09/25 15:31:25;;;;;;;6.90;4.40;;;;;;;;;;6156265;23;20163;-92
2021/09/25 15:34:30;;;;;;;5.13;3.60;;;;;;;;;;6153875;23;20180;-91
2021/09/25 15:37:35;;;;;;;7.47;4.10;;;;;;;;;;6151962;23;20195;-92
2021/09/25 15:40:41;;;;;;;6.78;3.90;;;;;;;;;;6151190;23;20179;-91
2021/09/25 15:43:47;;;;;;;6.47;3.80;;;;;;;;;;6154262;23;20608;-91
2021/09/25 15:46:53;;;;;;;6.80;3.90;;;;;;;;;;6154170;23;20160;-91
2021/09/25 15:49:59;;;;;;;5.28;3.88;;;;;;;;;;6154373;23;20175;-92
2021/09/25 15:53:04;;;;;;;8.35;3.97;;;;;;;;;;6153586;23;20307;-93
2021/09/25 15:56:10;;;;;;;8.73;4.15;;;;;;;;;;6154956;23;20208;-92
2021/09/25 15:59:18;;;;;;;6.20;4.03;;;;;;;;;;6157977;23;20157;-92
2021/09/25 16:02:23;;;;;;;8.52;4.45;;;;;;;;;;6153793;23;20248;-93
2021/09/25 16:05:28;;;;;;;7.07;4.38;;;;;;;;;;6155596;23;20609;-92
2021/09/25 16:08:35;;;;;;;7.97;4.55;;;;;;;;;;6152632;23;20498;-92
2021/09/25 16:11:41;;;;;;;8.02;4.82;;;;;;;;;;6153648;23;20160;-91
2021/09/25 16:14:48;;;;;;;10.23;5.50;;;;;;;;;;6154089;23;20237;-88
2021/09/25 16:21:12;;;;;;;9.80;5.32;;;;;;;;;;6162056;23;20173;-92
2021/09/25 16:24:18;;;;;;;8.05;5.30;;;;;;;;;;6156905;23;20163;-92
2021/09/25 16:30:45;;;;;;;12.13;6.30;;;;;;;;;;6157709;23;20272;-90
2021/09/25 16:33:50;;;;;;;13.60;7.50;;;;;;;;;;6155852;23;20192;-92
2021/09/25 16:36:56;;;;;;;11.52;6.50;;;;;;;;;;6156325;23;20200;-91
2021/09/25 16:40:00;;;;;;;12.63;6.25;;;;;;;;;;6156856;23;20176;-91
2021/09/25 16:43:15;;;;;;;16.55;7.82;;;;;;;;;;6155730;23;20160;-91
2021/09/25 16:46:22;;;;;;;14.18;6.40;;;;;;;;;;6155231;23;20152;-90
2021/09/25 16:49:35;;;;;;;10.35;6.28;;;;;;;;;;6154407;23;20228;-91
2021/09/25 16:52:46;;;;;;;14.45;7.22;;;;;;;;;;6156477;23;20192;-91
2021/09/25 16:55:51;;;;;;;13.73;6.75;;;;;;;;;;6155815;23;20293;-92
2021/09/25 16:58:57;;;;;;;12.10;6.47;;;;;;;;;;6154041;23;20212;-89
2021/09/25 17:02:04;;;;;;;10.70;6.40;;;;;;;;;;6136408;23;20192;-89
2021/09/25 17:05:12;;;;;;;18.08;10.35;;;;;;;;;;6156002;23;20176;-91
2021/09/25 17:08:19;;;;;;;13.38;7.05;;;;;;;;;;6154742;23;20168;-91
2021/09/25 17:11:25;;;;;;;11.80;6.45;;;;;;;;;;6154334;23;20180;-91
2021/09/25 17:14:30;;;;;;;15.20;6.70;;;;;;;;;;6156223;23;20275;-90
2021/09/25 17:17:37;;;;;;;12.02;7.10;;;;;;;;;;6171165;23;20216;-90
2021/09/25 17:20:42;;;;;;;13.95;6.80;;;;;;;;;;6152610;23;20153;-90
2021/09/25 17:23:47;;;;;;;14.68;6.72;;;;;;;;;;6153106;23;20159;-90
2021/09/25 17:26:53;;;;;;;10.73;6.53;;;;;;;;;;6153886;23;20168;-90
2021/09/25 17:34:20;;;;;;;14.05;6.80;;;;;;;;;;6145975;23;20184;-91
2021/09/25 17:37:25;;;;;;;11.23;6.90;;;;;;;;;;6152589;23;20188;-90
2021/09/25 17:40:33;;;;;;;13.05;7.97;;;;;;;;;;6151708;23;20213;-90
2021/09/25 17:43:39;;;;;;;12.48;7.18;;;;;;;;;;6154238;23;20168;-92
2021/09/25 17:46:49;;;;;;;13.73;7.25;;;;;;;;;;6154136;23;20173;-89
2021/09/25 17:49:56;;;;;;;13.27;7.63;;;;;;;;;;6153950;23;20209;-92
2021/09/25 17:53:01;;;;;;;13.70;7.80;;;;;;;;;;6154416;23;20199;-90
2021/09/25 17:56:06;;;;;;;18.13;8.88;;;;;;;;;;6153591;23;20446;-88
2021/09/25 17:59:11;;;;;;;19.90;8.60;;;;;;;;;;6154919;23;20246;-91
2021/09/25 18:02:17;;;;;;;13.68;7.47;;;;;;;;;;6155347;23;20236;-87
2021/09/25 18:05:23;;;;;;;16.77;8.68;;;;;;;;;;6155210;23;20243;-91
2021/09/25 18:08:29;;;;;;;16.90;8.68;;;;;;;;;;6170798;23;20176;-88
2021/09/25 18:11:34;;;;;;;17.92;10.07;;;;;;;;;;6153407;23;20173;-91
2021/09/25 18:14:40;;;;;;;19.92;11.65;;;;;;;;;;6152830;23;20177;-89
2021/09/25 18:17:45;;;;;;;20.15;10.70;;;;;;;;;;6154202;23;20196;-91
2021/09/25 18:20:54;;;;;;;17.05;8.85;;;;;;;;;;6168919;23;20176;-91
2021/09/25 18:23:59;;;;;;;16.33;10.43;;;;;;;;;;6151050;23;20184;-89
2021/09/25 18:27:04;;;;;;;18.92;11.88;;;;;;;;;;6167539;23;20219;-88
2021/09/25 18:30:10;;;;;;;29.98;17.88;;;;;;;;;;6152475;23;20168;-89
2021/09/25 18:33:17;;;;;;;24.58;12.07;;;;;;;;;;6152760;23;20184;-91
2021/09/25 18:36:29;;;;;;;23.77;12.05;;;;;;;;;;6167639;23;20188;-91
2021/09/25 18:39:34;;;;;;;21.40;10.50;;;;;;;;;;6150625;23;20204;-89
2021/09/25 18:42:39;;;;;;;16.85;9.18;;;;;;;;;;6165943;23;20171;-90
2021/09/25 18:45:44;;;;;;;15.50;8.95;;;;;;;;;;6150247;23;20155;-90
2021/09/25 18:48:51;;;;;;;17.38;9.07;;;;;;;;;;6150785;23;20248;-90
2021/09/25 18:51:57;;;;;;;15.20;9.10;;;;;;;;;;6149894;23;20160;-91